Agency, IA

10:05 PM CDT on April 26, 2017 (GMT -0500)
Oskaloosa Municipal | | Change Station

Elev 840 ft 41.23 °N, 92.49 °W | Updated 10 minutes ago

Rain
Rain
44 °F
Feels Like 37 °F
N
15
Wind Variable Wind from NW

Today
High -- | Low -- °F
--% Chance of Precip.
Yesterday
High -- | Low -- °F
Precip. -- in
Pressure 29.57 in
Visibility 10.0 miles
Clouds Overcast 1900 ft
Windchill 37 °F
Dew Point 39 °F
Humidity 83%
Rainfall 0.01 in
Snow Depth Not available.
6:13 AM 8:01 PM
New Moon, 1% visible
METAR KOOA 270255Z AUTO 32013KT 10SM -RA OVC019 07/04 A2957 RMK AO2 T00650038
Pressure 29.57 in
Visibility 10.0 miles
Clouds Overcast 1900 ft
Windchill 37 °F
Dew Point 39 °F
Humidity 83%
Rainfall 0.01 in
Snow Depth Not available.
6:13 AM 8:01 PM
New Moon, 1% visible
METAR KOOA 270255Z AUTO 32013KT 10SM -RA OVC019 07/04 A2957 RMK AO2 T00650038

Get Severe Weather Alerts

Thanks for signing up!

Be on the lookout for a verification email in your inbox.

You'll start receiving the daily forecast at 8 AM.

×

10-Day Weather Forecast

Almanac

Astronomy

Apr. 26, 2017 Rise Set
Actual Time
Civil Twilight
Nautical Twilight
Astronomical Twilight
Moon
Length of Visible Light
Length of Day
Tomorrow will be .
, % of the Moon is Illuminated

Today's Extremes

State Highs State Lows

Community

WunderPhotos

WunderBlog® & News

Nearby

Air Quality

  Air Quality AQ Index Pollutant
Not available.

Snow Depth

Station Depth Elevation

Earthquake Activity

City Distance Mag. Time & Date
Minimum magnitude displayed is 2.5.

Coastal Water Temperatures

Place Temperature

Stations

Nearby Weather Stations

Station Location Temp. Windchill Dew Point Humidity Wind Precip. Elev Updated Type
                   

Watches & Warnings

There are currently no watches in effect.